sensor_id;sensor_type;location;lat;lon;timestamp;pressure;altitude;pressure_sealevel;temperature;humidity
13367;BME280;6752;52.612;13.630;2023-04-27T00:04:45;101128.66;;;5.82;100.00
13367;BME280;6752;52.612;13.630;2023-04-27T00:09:48;101132.75;;;5.78;100.00
13367;BME280;6752;52.612;13.630;2023-04-27T00:14:50;101128.24;;;5.81;100.00
13367;BME280;6752;52.612;13.630;2023-04-27T00:19:52;101125.57;;;5.77;100.00
13367;BME280;6752;52.612;13.630;2023-04-27T00:24:55;101129.48;;;5.75;100.00
13367;BME280;6752;52.612;13.630;2023-04-27T00:29:57;101131.67;;;5.75;100.00
13367;BME280;6752;52.612;13.630;2023-04-27T00:34:59;101124.03;;;5.63;100.00
13367;BME280;6752;52.612;13.630;2023-04-27T00:40:03;101130.92;;;5.74;100.00
13367;BME280;6752;52.612;13.630;2023-04-27T00:45:04;101133.27;;;5.89;100.00
13367;BME280;6752;52.612;13.630;2023-04-27T00:50:07;101138.02;;;5.86;100.00
13367;BME280;6752;52.612;13.630;2023-04-27T00:55:12;101139.03;;;5.74;100.00
13367;BME280;6752;52.612;13.630;2023-04-27T01:00:14;101145.28;;;5.75;100.00
13367;BME280;6752;52.612;13.630;2023-04-27T01:05:16;101139.91;;;5.70;100.00
13367;BME280;6752;52.612;13.630;2023-04-27T01:10:18;101149.45;;;5.66;100.00
13367;BME280;6752;52.612;13.630;2023-04-27T01:15:20;101144.64;;;5.53;100.00
13367;BME280;6752;52.612;13.630;2023-04-27T01:20:22;101144.68;;;5.41;100.00
13367;BME280;6752;52.612;13.630;2023-04-27T01:25:24;101149.27;;;5.56;100.00
13367;BME280;6752;52.612;13.630;2023-04-27T01:30:27;101145.19;;;5.60;100.00
13367;BME280;6752;52.612;13.630;2023-04-27T01:35:29;101154.61;;;5.52;100.00
13367;BME280;6752;52.612;13.630;2023-04-27T01:40:31;101165.49;;;5.56;100.00
13367;BME280;6752;52.612;13.630;2023-04-27T01:45:33;101159.75;;;5.55;100.00
13367;BME280;6752;52.612;13.630;2023-04-27T01:50:35;101171.88;;;5.43;100.00
13367;BME280;6752;52.612;13.630;2023-04-27T01:55:38;101173.35;;;5.34;100.00
13367;BME280;6752;52.612;13.630;2023-04-27T02:00:40;101179.69;;;5.34;100.00
13367;BME280;6752;52.612;13.630;2023-04-27T02:05:42;101179.16;;;5.39;100.00
13367;BME280;6752;52.612;13.630;2023-04-27T02:10:45;101179.67;;;5.38;100.00
13367;BME280;6752;52.612;13.630;2023-04-27T02:15:47;101187.05;;;5.33;100.00
13367;BME280;6752;52.612;13.630;2023-04-27T02:20:49;101183.19;;;5.27;100.00
13367;BME280;6752;52.612;13.630;2023-04-27T02:25:52;101194.24;;;5.29;100.00
13367;BME280;6752;52.612;13.630;2023-04-27T02:30:54;101195.36;;;5.23;100.00
13367;BME280;6752;52.612;13.630;2023-04-27T02:35:57;101198.47;;;5.19;100.00
13367;BME280;6752;52.612;13.630;2023-04-27T02:40:59;101193.33;;;5.17;100.00
13367;BME280;6752;52.612;13.630;2023-04-27T02:46:02;101205.93;;;5.21;100.00
13367;BME280;6752;52.612;13.630;2023-04-27T02:51:04;101204.67;;;5.21;100.00
13367;BME280;6752;52.612;13.630;2023-04-27T02:56:06;101203.48;;;5.11;100.00
13367;BME280;6752;52.612;13.630;2023-04-27T03:01:08;101211.91;;;5.20;100.00
13367;BME280;6752;52.612;13.630;2023-04-27T03:06:11;101214.53;;;5.17;100.00
13367;BME280;6752;52.612;13.630;2023-04-27T03:11:13;101215.92;;;4.97;100.00
13367;BME280;6752;52.612;13.630;2023-04-27T03:16:15;101209.43;;;5.02;100.00
13367;BME280;6752;52.612;13.630;2023-04-27T03:21:18;101217.45;;;5.03;100.00
13367;BME280;6752;52.612;13.630;2023-04-27T03:26:20;101215.08;;;4.96;100.00
13367;BME280;6752;52.612;13.630;2023-04-27T03:31:23;101222.25;;;4.96;100.00
13367;BME280;6752;52.612;13.630;2023-04-27T03:36:25;101226.98;;;5.07;100.00
13367;BME280;6752;52.612;13.630;2023-04-27T03:41:27;101228.62;;;5.20;100.00
13367;BME280;6752;52.612;13.630;2023-04-27T03:46:30;101228.78;;;4.99;100.00
13367;BME280;6752;52.612;13.630;2023-04-27T03:51:32;101237.70;;;4.95;100.00
13367;BME280;6752;52.612;13.630;2023-04-27T03:56:34;101245.72;;;4.96;100.00
13367;BME280;6752;52.612;13.630;2023-04-27T04:01:37;101237.63;;;5.04;100.00
13367;BME280;6752;52.612;13.630;2023-04-27T04:06:39;101245.41;;;4.99;100.00
13367;BME280;6752;52.612;13.630;2023-04-27T04:11:41;101252.16;;;5.03;100.00
13367;BME280;6752;52.612;13.630;2023-04-27T04:16:44;101266.82;;;5.13;100.00
13367;BME280;6752;52.612;13.630;2023-04-27T04:21:46;101264.99;;;5.01;100.00
13367;BME280;6752;52.612;13.630;2023-04-27T04:26:48;101271.63;;;5.14;100.00
13367;BME280;6752;52.612;13.630;2023-04-27T04:31:51;101271.38;;;5.12;100.00
13367;BME280;6752;52.612;13.630;2023-04-27T04:36:53;101275.09;;;5.27;100.00
13367;BME280;6752;52.612;13.630;2023-04-27T04:41:56;101274.00;;;5.25;100.00
13367;BME280;6752;52.612;13.630;2023-04-27T04:46:58;101284.03;;;5.20;100.00
13367;BME280;6752;52.612;13.630;2023-04-27T04:52:00;101281.97;;;5.42;100.00
13367;BME280;6752;52.612;13.630;2023-04-27T04:57:04;101282.79;;;5.55;100.00
13367;BME280;6752;52.612;13.630;2023-04-27T05:02:05;101287.28;;;5.51;100.00
13367;BME280;6752;52.612;13.630;2023-04-27T05:07:07;101293.33;;;5.69;100.00
13367;BME280;6752;52.612;13.630;2023-04-27T05:12:10;101290.18;;;5.73;100.00
13367;BME280;6752;52.612;13.630;2023-04-27T05:17:12;101284.73;;;5.81;100.00
13367;BME280;6752;52.612;13.630;2023-04-27T05:22:14;101288.66;;;6.02;100.00
13367;BME280;6752;52.612;13.630;2023-04-27T05:27:17;101295.27;;;6.00;100.00
13367;BME280;6752;52.612;13.630;2023-04-27T05:32:19;101297.63;;;6.18;100.00
13367;BME280;6752;52.612;13.630;2023-04-27T05:37:22;101288.59;;;6.30;100.00
13367;BME280;6752;52.612;13.630;2023-04-27T05:42:24;101291.95;;;6.47;100.00
13367;BME280;6752;52.612;13.630;2023-04-27T05:47:26;101294.02;;;6.68;100.00
13367;BME280;6752;52.612;13.630;2023-04-27T05:52:29;101298.53;;;6.65;100.00
13367;BME280;6752;52.612;13.630;2023-04-27T05:57:31;101303.21;;;6.82;100.00
13367;BME280;6752;52.612;13.630;2023-04-27T06:02:33;101299.36;;;7.37;100.00
13367;BME280;6752;52.612;13.630;2023-04-27T06:07:36;101298.92;;;8.03;100.00
13367;BME280;6752;52.612;13.630;2023-04-27T06:12:38;101301.69;;;7.81;97.09
13367;BME280;6752;52.612;13.630;2023-04-27T06:17:40;101314.02;;;7.76;97.60
13367;BME280;6752;52.612;13.630;2023-04-27T06:22:43;101306.25;;;7.95;95.75
13367;BME280;6752;52.612;13.630;2023-04-27T06:27:45;101316.58;;;8.03;94.22
13367;BME280;6752;52.612;13.630;2023-04-27T06:32:48;101310.32;;;8.10;92.30
13367;BME280;6752;52.612;13.630;2023-04-27T06:37:50;101321.50;;;7.96;90.43
13367;BME280;6752;52.612;13.630;2023-04-27T06:42:52;101318.50;;;8.13;87.78
13367;BME280;6752;52.612;13.630;2023-04-27T06:47:55;101322.62;;;8.57;90.81
13367;BME280;6752;52.612;13.630;2023-04-27T06:52:57;101321.06;;;8.51;85.15
13367;BME280;6752;52.612;13.630;2023-04-27T06:57:59;101319.66;;;9.19;83.91
13367;BME280;6752;52.612;13.630;2023-04-27T07:03:02;101320.44;;;9.48;79.83
13367;BME280;6752;52.612;13.630;2023-04-27T07:08:04;101322.73;;;9.34;77.79
13367;BME280;6752;52.612;13.630;2023-04-27T07:13:06;101327.98;;;9.00;76.29
13367;BME280;6752;52.612;13.630;2023-04-27T07:18:08;101325.39;;;9.87;75.81
13367;BME280;6752;52.612;13.630;2023-04-27T07:23:11;101324.53;;;9.97;71.93
13367;BME280;6752;52.612;13.630;2023-04-27T07:28:13;101316.09;;;10.50;67.51
13367;BME280;6752;52.612;13.630;2023-04-27T07:33:15;101313.57;;;10.92;69.33
13367;BME280;6752;52.612;13.630;2023-04-27T07:38:18;101318.67;;;10.78;68.23
13367;BME280;6752;52.612;13.630;2023-04-27T07:43:20;101319.34;;;10.97;67.76
13367;BME280;6752;52.612;13.630;2023-04-27T07:48:22;101317.66;;;11.85;64.01
13367;BME280;6752;52.612;13.630;2023-04-27T07:53:25;101330.34;;;10.49;65.73
13367;BME280;6752;52.612;13.630;2023-04-27T07:58:27;101340.84;;;10.55;67.88
13367;BME280;6752;52.612;13.630;2023-04-27T08:03:30;101334.16;;;10.37;67.70
13367;BME280;6752;52.612;13.630;2023-04-27T08:08:32;101333.97;;;9.83;67.95
13367;BME280;6752;52.612;13.630;2023-04-27T08:13:34;101313.67;;;11.05;63.66
13367;BME280;6752;52.612;13.630;2023-04-27T08:18:37;101313.23;;;11.90;59.38
13367;BME280;6752;52.612;13.630;2023-04-27T08:23:40;101319.55;;;11.84;58.82
13367;BME280;6752;52.612;13.630;2023-04-27T08:28:41;101336.30;;;10.42;62.73
13367;BME280;6752;52.612;13.630;2023-04-27T08:33:44;101329.34;;;11.43;60.31
13367;BME280;6752;52.612;13.630;2023-04-27T08:38:46;101329.08;;;11.74;60.48
13367;BME280;6752;52.612;13.630;2023-04-27T08:43:51;101340.85;;;10.62;60.69
13367;BME280;6752;52.612;13.630;2023-04-27T08:48:54;101347.04;;;10.33;62.19
13367;BME280;6752;52.612;13.630;2023-04-27T08:53:56;101341.00;;;10.03;64.99
13367;BME280;6752;52.612;13.630;2023-04-27T08:58:59;101347.41;;;10.06;64.53
13367;BME280;6752;52.612;13.630;2023-04-27T09:04:01;101348.25;;;10.09;63.58
13367;BME280;6752;52.612;13.630;2023-04-27T09:09:03;101343.27;;;9.78;62.94
13367;BME280;6752;52.612;13.630;2023-04-27T09:14:18;101350.41;;;10.00;63.59
13367;BME280;6752;52.612;13.630;2023-04-27T09:19:26;101339.77;;;10.43;63.14
13367;BME280;6752;52.612;13.630;2023-04-27T09:24:25;101335.06;;;10.24;59.46
13367;BME280;6752;52.612;13.630;2023-04-27T09:29:37;101313.39;;;12.09;56.30
13367;BME280;6752;52.612;13.630;2023-04-27T09:34:39;101314.64;;;11.41;54.08
13367;BME280;6752;52.612;13.630;2023-04-27T09:39:41;101304.34;;;10.93;54.77
13367;BME280;6752;52.612;13.630;2023-04-27T09:44:43;101311.05;;;11.07;56.09
13367;BME280;6752;52.612;13.630;2023-04-27T09:49:46;101312.00;;;10.90;55.72
13367;BME280;6752;52.612;13.630;2023-04-27T09:54:48;101316.47;;;10.74;58.37
13367;BME280;6752;52.612;13.630;2023-04-27T10:10:51;101298.79;;;11.40;57.21
13367;BME280;6752;52.612;13.630;2023-04-27T10:15:52;101292.70;;;11.42;56.16
13367;BME280;6752;52.612;13.630;2023-04-27T10:20:55;101287.25;;;11.38;54.43
13367;BME280;6752;52.612;13.630;2023-04-27T10:25:57;101280.93;;;14.16;54.68
13367;BME280;6752;52.612;13.630;2023-04-27T10:31:08;101281.83;;;12.89;52.93
13367;BME280;6752;52.612;13.630;2023-04-27T10:36:02;101288.86;;;11.72;53.06
13367;BME280;6752;52.612;13.630;2023-04-27T10:41:11;101291.63;;;12.11;52.60
13367;BME280;6752;52.612;13.630;2023-04-27T10:46:13;101284.91;;;12.68;53.96
13367;BME280;6752;52.612;13.630;2023-04-27T10:51:14;101267.53;;;14.80;51.15
13367;BME280;6752;52.612;13.630;2023-04-27T10:56:17;101270.39;;;13.70;48.62
13367;BME280;6752;52.612;13.630;2023-04-27T11:01:25;101269.90;;;14.13;45.75
13367;BME280;6752;52.612;13.630;2023-04-27T11:06:27;101284.71;;;12.31;50.51
13367;BME280;6752;52.612;13.630;2023-04-27T11:11:29;101276.94;;;12.66;50.39
13367;BME280;6752;52.612;13.630;2023-04-27T11:16:32;101283.69;;;13.27;49.48
13367;BME280;6752;52.612;13.630;2023-04-27T11:21:34;101287.01;;;12.34;49.80
13367;BME280;6752;52.612;13.630;2023-04-27T11:26:36;101291.60;;;11.86;49.74
13367;BME280;6752;52.612;13.630;2023-04-27T11:31:42;101287.91;;;12.18;48.84
13367;BME280;6752;52.612;13.630;2023-04-27T11:36:44;101288.64;;;12.42;48.60
13367;BME280;6752;52.612;13.630;2023-04-27T11:41:46;101300.12;;;12.73;50.59
13367;BME280;6752;52.612;13.630;2023-04-27T11:46:48;101306.20;;;12.62;51.40
13367;BME280;6752;52.612;13.630;2023-04-27T11:51:50;101307.63;;;13.03;51.34
13367;BME280;6752;52.612;13.630;2023-04-27T11:57:02;101302.07;;;13.41;50.74
13367;BME280;6752;52.612;13.630;2023-04-27T12:01:55;101306.54;;;12.91;50.95
13367;BME280;6752;52.612;13.630;2023-04-27T12:06:59;101316.04;;;12.25;51.10
13367;BME280;6752;52.612;13.630;2023-04-27T12:12:00;101318.25;;;12.26;52.69
13367;BME280;6752;52.612;13.630;2023-04-27T12:17:02;101331.69;;;11.98;53.13
13367;BME280;6752;52.612;13.630;2023-04-27T12:22:04;101328.43;;;11.99;53.00
13367;BME280;6752;52.612;13.630;2023-04-27T12:27:07;101332.35;;;11.71;52.06
13367;BME280;6752;52.612;13.630;2023-04-27T12:32:09;101337.12;;;12.15;52.64
13367;BME280;6752;52.612;13.630;2023-04-27T12:37:11;101323.44;;;11.63;51.67
13367;BME280;6752;52.612;13.630;2023-04-27T12:42:14;101330.04;;;11.71;52.22
13367;BME280;6752;52.612;13.630;2023-04-27T12:47:17;101318.77;;;13.05;50.98
13367;BME280;6752;52.612;13.630;2023-04-27T12:52:18;101327.08;;;12.50;52.38
13367;BME280;6752;52.612;13.630;2023-04-27T12:57:20;101322.41;;;12.76;50.79
13367;BME280;6752;52.612;13.630;2023-04-27T13:02:22;101327.03;;;12.82;49.51
13367;BME280;6752;52.612;13.630;2023-04-27T13:07:25;101325.13;;;12.63;48.71
13367;BME280;6752;52.612;13.630;2023-04-27T13:12:27;101324.75;;;12.57;50.10
13367;BME280;6752;52.612;13.630;2023-04-27T13:17:29;101321.29;;;12.56;50.85
13367;BME280;6752;52.612;13.630;2023-04-27T13:22:32;101322.77;;;12.26;51.46
13367;BME280;6752;52.612;13.630;2023-04-27T13:27:34;101328.98;;;12.31;51.55
13367;BME280;6752;52.612;13.630;2023-04-27T13:32:36;101322.31;;;12.10;51.23
13367;BME280;6752;52.612;13.630;2023-04-27T13:37:39;101318.11;;;12.74;51.33
13367;BME280;6752;52.612;13.630;2023-04-27T13:42:41;101322.20;;;12.40;52.46
13367;BME280;6752;52.612;13.630;2023-04-27T13:47:43;101316.10;;;12.75;50.41
13367;BME280;6752;52.612;13.630;2023-04-27T13:52:45;101308.60;;;12.84;48.19
13367;BME280;6752;52.612;13.630;2023-04-27T13:57:48;101309.69;;;12.79;47.93
13367;BME280;6752;52.612;13.630;2023-04-27T14:02:50;101310.86;;;12.04;48.94
13367;BME280;6752;52.612;13.630;2023-04-27T14:07:53;101313.64;;;13.02;48.58
13367;BME280;6752;52.612;13.630;2023-04-27T14:12:55;101307.27;;;14.35;48.05
13367;BME280;6752;52.612;13.630;2023-04-27T14:17:57;101306.52;;;13.11;46.74
13367;BME280;6752;52.612;13.630;2023-04-27T14:23:00;101304.30;;;14.03;43.76
13367;BME280;6752;52.612;13.630;2023-04-27T14:28:03;101308.70;;;13.64;46.07
13367;BME280;6752;52.612;13.630;2023-04-27T14:33:04;101311.48;;;13.70;46.47
13367;BME280;6752;52.612;13.630;2023-04-27T14:38:07;101315.09;;;12.70;46.11
13367;BME280;6752;52.612;13.630;2023-04-27T14:43:09;101309.03;;;12.96;44.17
13367;BME280;6752;52.612;13.630;2023-04-27T14:48:11;101304.86;;;14.27;45.17
13367;BME280;6752;52.612;13.630;2023-04-27T14:53:14;101304.27;;;14.31;44.69
13367;BME280;6752;52.612;13.630;2023-04-27T14:58:16;101300.96;;;14.16;44.61
13367;BME280;6752;52.612;13.630;2023-04-27T15:03:18;101301.87;;;14.28;45.63
13367;BME280;6752;52.612;13.630;2023-04-27T15:08:21;101299.19;;;14.25;44.57
13367;BME280;6752;52.612;13.630;2023-04-27T15:13:23;101295.69;;;14.09;43.73
13367;BME280;6752;52.612;13.630;2023-04-27T15:18:26;101297.89;;;14.46;47.01
13367;BME280;6752;52.612;13.630;2023-04-27T15:23:28;101299.95;;;14.38;45.76
13367;BME280;6752;52.612;13.630;2023-04-27T15:28:30;101294.80;;;12.69;45.76
13367;BME280;6752;52.612;13.630;2023-04-27T15:33:33;101306.56;;;12.28;48.58
13367;BME280;6752;52.612;13.630;2023-04-27T15:38:35;101311.90;;;13.24;47.86
13367;BME280;6752;52.612;13.630;2023-04-27T15:43:37;101302.69;;;13.77;48.83
13367;BME280;6752;52.612;13.630;2023-04-27T15:48:40;101302.42;;;13.73;48.42
13367;BME280;6752;52.612;13.630;2023-04-27T15:53:42;101301.31;;;12.26;48.98
13367;BME280;6752;52.612;13.630;2023-04-27T15:58:44;101303.20;;;12.00;51.04
13367;BME280;6752;52.612;13.630;2023-04-27T16:03:47;101300.00;;;11.71;51.32
13367;BME280;6752;52.612;13.630;2023-04-27T16:08:49;101301.19;;;11.46;52.09
13367;BME280;6752;52.612;13.630;2023-04-27T16:13:51;101291.53;;;12.34;52.47
13367;BME280;6752;52.612;13.630;2023-04-27T16:18:56;101291.69;;;12.93;51.11
13367;BME280;6752;52.612;13.630;2023-04-27T16:23:56;101280.98;;;12.38;49.69
13367;BME280;6752;52.612;13.630;2023-04-27T16:28:59;101279.31;;;11.86;50.96
13367;BME280;6752;52.612;13.630;2023-04-27T16:34:01;101275.59;;;11.40;50.82
13367;BME280;6752;52.612;13.630;2023-04-27T16:39:03;101273.69;;;11.31;51.63
13367;BME280;6752;52.612;13.630;2023-04-27T16:44:06;101280.09;;;11.07;52.63
13367;BME280;6752;52.612;13.630;2023-04-27T16:49:08;101284.72;;;10.94;54.20
13367;BME280;6752;52.612;13.630;2023-04-27T16:54:10;101299.00;;;11.42;57.90
13367;BME280;6752;52.612;13.630;2023-04-27T16:59:13;101296.10;;;11.82;57.93
13367;BME280;6752;52.612;13.630;2023-04-27T17:04:15;101288.27;;;12.09;55.29
13367;BME280;6752;52.612;13.630;2023-04-27T17:09:20;101287.14;;;12.23;55.51
13367;BME280;6752;52.612;13.630;2023-04-27T17:14:22;101276.16;;;12.14;56.04
13367;BME280;6752;52.612;13.630;2023-04-27T17:19:24;101295.83;;;11.62;57.49
13367;BME280;6752;52.612;13.630;2023-04-27T17:24:26;101296.50;;;11.96;58.82
13367;BME280;6752;52.612;13.630;2023-04-27T17:29:28;101295.05;;;11.90;59.41
13367;BME280;6752;52.612;13.630;2023-04-27T17:34:31;101299.37;;;11.89;59.76
13367;BME280;6752;52.612;13.630;2023-04-27T17:39:33;101292.97;;;11.69;59.36
13367;BME280;6752;52.612;13.630;2023-04-27T17:44:35;101294.79;;;11.46;58.89
13367;BME280;6752;52.612;13.630;2023-04-27T17:49:38;101298.37;;;11.40;60.03
13367;BME280;6752;52.612;13.630;2023-04-27T17:54:40;101295.42;;;10.92;56.89
13367;BME280;6752;52.612;13.630;2023-04-27T17:59:42;101291.65;;;10.90;57.51
13367;BME280;6752;52.612;13.630;2023-04-27T18:04:45;101299.83;;;10.46;54.61
13367;BME280;6752;52.612;13.630;2023-04-27T18:09:47;101313.80;;;10.26;62.75
13367;BME280;6752;52.612;13.630;2023-04-27T18:14:50;101325.11;;;10.23;70.53
13367;BME280;6752;52.612;13.630;2023-04-27T18:19:55;101329.79;;;9.53;72.73
13367;BME280;6752;52.612;13.630;2023-04-27T18:24:57;101322.53;;;9.11;67.18
13367;BME280;6752;52.612;13.630;2023-04-27T18:29:59;101327.15;;;9.49;63.66
13367;BME280;6752;52.612;13.630;2023-04-27T18:35:02;101338.72;;;9.58;65.52
13367;BME280;6752;52.612;13.630;2023-04-27T18:40:04;101346.95;;;9.18;68.34
13367;BME280;6752;52.612;13.630;2023-04-27T18:45:06;101359.53;;;9.30;67.61
13367;BME280;6752;52.612;13.630;2023-04-27T18:50:09;101360.30;;;8.99;71.96
13367;BME280;6752;52.612;13.630;2023-04-27T18:55:11;101367.11;;;8.74;72.82
13367;BME280;6752;52.612;13.630;2023-04-27T19:00:14;101370.29;;;8.12;76.63
13367;BME280;6752;52.612;13.630;2023-04-27T19:05:20;101368.19;;;8.51;76.66
13367;BME280;6752;52.612;13.630;2023-04-27T19:10:18;101366.55;;;8.35;77.63
13367;BME280;6752;52.612;13.630;2023-04-27T19:15:21;101368.75;;;8.06;81.74
13367;BME280;6752;52.612;13.630;2023-04-27T19:20:23;101368.72;;;7.69;82.79
13367;BME280;6752;52.612;13.630;2023-04-27T19:25:25;101370.55;;;7.46;84.89
13367;BME280;6752;52.612;13.630;2023-04-27T19:30:28;101364.65;;;7.43;83.55
13367;BME280;6752;52.612;13.630;2023-04-27T19:35:30;101367.73;;;7.40;84.25
13367;BME280;6752;52.612;13.630;2023-04-27T19:40:32;101368.03;;;7.15;85.90
13367;BME280;6752;52.612;13.630;2023-04-27T19:45:35;101364.92;;;6.99;85.06
13367;BME280;6752;52.612;13.630;2023-04-27T19:50:39;101368.80;;;6.77;88.18
13367;BME280;6752;52.612;13.630;2023-04-27T19:55:39;101373.39;;;6.57;90.58
13367;BME280;6752;52.612;13.630;2023-04-27T20:00:42;101382.22;;;6.40;90.02
13367;BME280;6752;52.612;13.630;2023-04-27T20:05:44;101386.79;;;6.20;91.26
13367;BME280;6752;52.612;13.630;2023-04-27T20:10:47;101380.42;;;6.24;89.83
13367;BME280;6752;52.612;13.630;2023-04-27T20:15:49;101379.83;;;5.85;92.93
13367;BME280;6752;52.612;13.630;2023-04-27T20:20:51;101371.31;;;5.93;90.41
13367;BME280;6752;52.612;13.630;2023-04-27T20:25:54;101372.84;;;5.67;91.94
13367;BME280;6752;52.612;13.630;2023-04-27T20:30:56;101376.66;;;5.62;91.71
13367;BME280;6752;52.612;13.630;2023-04-27T20:35:58;101371.55;;;5.31;93.35
13367;BME280;6752;52.612;13.630;2023-04-27T20:41:01;101377.61;;;5.41;91.76
13367;BME280;6752;52.612;13.630;2023-04-27T20:46:04;101376.86;;;5.11;95.16
13367;BME280;6752;52.612;13.630;2023-04-27T20:51:05;101363.53;;;4.98;97.03
13367;BME280;6752;52.612;13.630;2023-04-27T20:56:07;101365.81;;;4.97;95.77
13367;BME280;6752;52.612;13.630;2023-04-27T21:01:10;101363.38;;;4.58;98.41
13367;BME280;6752;52.612;13.630;2023-04-27T21:06:12;101358.73;;;4.67;96.87
13367;BME280;6752;52.612;13.630;2023-04-27T21:11:14;101362.19;;;4.60;95.73
13367;BME280;6752;52.612;13.630;2023-04-27T21:16:17;101355.02;;;4.31;99.75
13367;BME280;6752;52.612;13.630;2023-04-27T21:21:19;101353.95;;;4.45;99.15
13367;BME280;6752;52.612;13.630;2023-04-27T21:26:21;101352.69;;;4.44;97.84
13367;BME280;6752;52.612;13.630;2023-04-27T21:31:24;101352.67;;;4.32;97.88
13367;BME280;6752;52.612;13.630;2023-04-27T21:36:26;101354.95;;;4.14;100.00
13367;BME280;6752;52.612;13.630;2023-04-27T21:41:28;101350.30;;;4.08;99.20
13367;BME280;6752;52.612;13.630;2023-04-27T21:46:31;101356.11;;;3.78;100.00
13367;BME280;6752;52.612;13.630;2023-04-27T21:51:33;101348.17;;;3.85;100.00
13367;BME280;6752;52.612;13.630;2023-04-27T21:56:35;101355.17;;;3.87;100.00
13367;BME280;6752;52.612;13.630;2023-04-27T22:01:38;101357.04;;;3.78;100.00
13367;BME280;6752;52.612;13.630;2023-04-27T22:06:40;101356.44;;;3.75;100.00
13367;BME280;6752;52.612;13.630;2023-04-27T22:11:43;101354.50;;;3.46;100.00
13367;BME280;6752;52.612;13.630;2023-04-27T22:16:45;101351.38;;;3.46;100.00
13367;BME280;6752;52.612;13.630;2023-04-27T22:21:47;101356.80;;;3.28;100.00
13367;BME280;6752;52.612;13.630;2023-04-27T22:26:50;101365.33;;;3.41;100.00
13367;BME280;6752;52.612;13.630;2023-04-27T22:31:52;101355.64;;;3.31;100.00
13367;BME280;6752;52.612;13.630;2023-04-27T22:36:54;101355.50;;;3.23;100.00
13367;BME280;6752;52.612;13.630;2023-04-27T22:41:57;101353.58;;;3.12;100.00
13367;BME280;6752;52.612;13.630;2023-04-27T22:46:59;101366.63;;;3.11;100.00
13367;BME280;6752;52.612;13.630;2023-04-27T22:52:01;101364.38;;;3.07;100.00
13367;BME280;6752;52.612;13.630;2023-04-27T22:57:03;101362.22;;;3.01;100.00
13367;BME280;6752;52.612;13.630;2023-04-27T23:02:05;101360.42;;;2.97;100.00
13367;BME280;6752;52.612;13.630;2023-04-27T23:07:08;101354.42;;;2.76;100.00
13367;BME280;6752;52.612;13.630;2023-04-27T23:12:10;101351.19;;;2.82;100.00
13367;BME280;6752;52.612;13.630;2023-04-27T23:17:12;101343.89;;;2.74;100.00
13367;BME280;6752;52.612;13.630;2023-04-27T23:22:15;101345.09;;;2.67;100.00
13367;BME280;6752;52.612;13.630;2023-04-27T23:27:17;101339.74;;;2.71;100.00
13367;BME280;6752;52.612;13.630;2023-04-27T23:32:19;101333.73;;;2.50;100.00
13367;BME280;6752;52.612;13.630;2023-04-27T23:37:21;101337.69;;;2.42;100.00
13367;BME280;6752;52.612;13.630;2023-04-27T23:42:24;101338.50;;;2.34;100.00
13367;BME280;6752;52.612;13.630;2023-04-27T23:47:26;101327.97;;;2.31;100.00
13367;BME280;6752;52.612;13.630;2023-04-27T23:52:28;101309.75;;;2.34;100.00
13367;BME280;6752;52.612;13.630;2023-04-27T23:57:31;101316.09;;;2.29;100.00
